createdAt,value
2018-11-01T00:00:58.097Z,8.00
2018-11-01T00:01:58.121Z,8.00
2018-11-01T00:02:58.069Z,4.00
2018-11-01T00:03:58.060Z,8.00
2018-11-01T00:04:58.045Z,8.00
2018-11-01T00:05:58.039Z,4.00
2018-11-01T00:06:58.027Z,4.00
2018-11-01T00:07:58.056Z,8.00
2018-11-01T00:08:58.010Z,8.00
2018-11-01T00:09:57.997Z,8.00
2018-11-01T00:10:57.990Z,8.00
2018-11-01T00:11:57.974Z,8.00
2018-11-01T00:12:57.960Z,8.00
2018-11-01T00:13:57.985Z,8.00
2018-11-01T00:14:57.936Z,8.00
2018-11-01T00:15:57.932Z,8.00
2018-11-01T00:17:10.099Z,8.00
2018-11-01T00:17:57.910Z,8.00
2018-11-01T00:18:57.898Z,8.00
2018-11-01T00:19:58.060Z,8.00
2018-11-01T00:20:57.869Z,8.00
2018-11-01T00:21:57.861Z,8.00
2018-11-01T00:22:57.855Z,8.00
2018-11-01T00:23:57.844Z,8.00
2018-11-01T00:24:57.830Z,8.00
2018-11-01T00:25:57.860Z,8.00
2018-11-01T00:26:57.812Z,8.00
2018-11-01T00:27:57.796Z,8.00
2018-11-01T00:28:57.797Z,8.00
2018-11-01T00:29:57.777Z,8.00
2018-11-01T00:30:57.767Z,8.00
2018-11-01T00:31:57.791Z,8.00
2018-11-01T00:32:57.745Z,8.00
2018-11-01T00:33:57.733Z,8.00
2018-11-01T00:34:57.728Z,8.00
2018-11-01T00:35:57.712Z,8.00
2018-11-01T00:36:57.701Z,8.00
2018-11-01T00:37:57.858Z,8.00
2018-11-01T00:38:57.682Z,8.00
2018-11-01T00:39:57.670Z,8.00
2018-11-01T00:40:57.656Z,8.00
2018-11-01T00:41:57.651Z,8.00
2018-11-01T00:42:57.637Z,8.00
2018-11-01T00:43:57.648Z,8.00
2018-11-01T00:44:57.616Z,8.00
2018-11-01T00:45:57.602Z,8.00
2018-11-01T00:46:57.588Z,8.00
2018-11-01T00:48:08.026Z,8.00
2018-11-01T00:48:57.573Z,8.00
2018-11-01T00:49:57.714Z,8.00
2018-11-01T00:50:57.546Z,8.00
2018-11-01T00:51:57.535Z,8.00
2018-11-01T00:52:57.523Z,8.00
2018-11-01T00:53:57.526Z,8.00
2018-11-01T00:54:57.506Z,8.00
2018-11-01T00:55:57.620Z,8.00
2018-11-01T00:56:57.484Z,8.00
2018-11-01T00:57:57.479Z,8.00
2018-11-01T00:58:57.462Z,8.00
2018-11-01T00:59:57.450Z,4.00
2018-11-01T01:00:57.441Z,8.00
2018-11-01T01:01:57.445Z,8.00
2018-11-01T01:02:57.421Z,8.00
2018-11-01T01:03:57.409Z,8.00
2018-11-01T01:04:57.401Z,4.00
2018-11-01T01:05:57.385Z,8.00
2018-11-01T01:06:57.372Z,8.00
2018-11-01T01:07:57.412Z,4.00
2018-11-01T01:08:57.350Z,8.00
2018-11-01T01:09:57.339Z,8.00
2018-11-01T01:10:57.329Z,4.00
2018-11-01T01:11:57.328Z,8.00
2018-11-01T01:12:57.310Z,4.00
2018-11-01T01:13:57.335Z,8.00
2018-11-01T01:14:57.289Z,8.00
2018-11-01T01:15:57.274Z,8.00
2018-11-01T01:16:57.265Z,8.00
2018-11-01T01:17:57.260Z,8.00
2018-11-01T01:19:08.026Z,8.00
2018-11-01T01:19:57.234Z,8.00
2018-11-01T01:20:57.220Z,8.00
2018-11-01T01:21:57.210Z,8.00
2018-11-01T01:22:57.200Z,8.00
2018-11-01T01:23:57.188Z,8.00
2018-11-01T01:24:57.214Z,8.00
2018-11-01T01:25:57.164Z,8.00
2018-11-01T01:26:57.162Z,8.00
2018-11-01T01:27:57.153Z,8.00
2018-11-01T01:28:57.134Z,8.00
2018-11-01T01:29:57.124Z,8.00
2018-11-01T01:30:57.168Z,8.00
2018-11-01T01:31:57.107Z,8.00
2018-11-01T01:32:57.096Z,8.00
2018-11-01T01:33:57.086Z,8.00
2018-11-01T01:34:57.076Z,8.00
2018-11-01T01:35:57.059Z,8.00
2018-11-01T01:36:57.304Z,8.00
2018-11-01T01:37:57.038Z,8.00
2018-11-01T01:38:57.024Z,8.00
2018-11-01T01:39:57.021Z,8.00
2018-11-01T01:40:57.012Z,8.00
2018-11-01T01:41:56.995Z,4.00
2018-11-01T01:42:57.015Z,4.00
2018-11-01T01:43:56.982Z,4.00
2018-11-01T01:44:56.961Z,4.00
2018-11-01T01:45:56.955Z,8.00
2018-11-01T01:46:56.944Z,8.00
2018-11-01T01:47:56.927Z,8.00
2018-11-01T01:48:56.965Z,4.00
2018-11-01T01:50:07.255Z,8.00
2018-11-01T01:50:56.896Z,4.00
2018-11-01T01:51:56.885Z,8.00
2018-11-01T01:52:56.874Z,8.00
2018-11-01T01:53:56.864Z,4.00
2018-11-01T01:54:56.887Z,4.00
2018-11-01T01:55:56.848Z,4.00
2018-11-01T01:56:56.838Z,8.00
2018-11-01T01:57:56.819Z,4.00
2018-11-01T01:58:56.812Z,4.00
2018-11-01T01:59:56.796Z,8.00
2018-11-01T02:00:56.829Z,8.00
2018-11-01T02:01:56.777Z,4.00
2018-11-01T02:02:56.771Z,4.00
2018-11-01T02:03:56.756Z,4.00
2018-11-01T02:04:56.742Z,8.00
2018-11-01T02:05:56.729Z,4.00
2018-11-01T02:06:56.761Z,8.00
2018-11-01T02:07:56.712Z,4.00
2018-11-01T02:08:56.706Z,4.00
2018-11-01T02:09:56.688Z,4.00
2018-11-01T02:10:56.680Z,4.00
2018-11-01T02:11:56.795Z,4.00
2018-11-01T02:12:56.693Z,8.00
2018-11-01T02:13:56.644Z,4.00
2018-11-01T02:14:56.632Z,4.00
2018-11-01T02:15:56.622Z,4.00
2018-11-01T02:16:56.617Z,8.00
2018-11-01T02:17:56.603Z,4.00
2018-11-01T02:18:56.629Z,4.00
2018-11-01T02:19:56.586Z,4.00
2018-11-01T02:21:07.589Z,4.00
2018-11-01T02:21:56.561Z,4.00
2018-11-01T02:22:56.547Z,4.00
2018-11-01T02:23:56.539Z,4.00
2018-11-01T02:24:56.561Z,8.00
2018-11-01T02:25:56.522Z,4.00
2018-11-01T02:26:56.508Z,4.00
2018-11-01T02:27:56.500Z,4.00
2018-11-01T02:28:56.495Z,4.00
2018-11-01T02:29:56.476Z,4.00
2018-11-01T02:30:56.497Z,4.00
2018-11-01T02:31:56.462Z,4.00
2018-11-01T02:32:56.445Z,4.00
2018-11-01T02:33:56.440Z,4.00
2018-11-01T02:34:56.414Z,4.00
2018-11-01T02:35:56.405Z,4.00
2018-11-01T02:36:56.435Z,4.00
2018-11-01T02:37:56.427Z,4.00
2018-11-01T02:38:56.379Z,4.00
2018-11-01T02:39:56.367Z,4.00
2018-11-01T02:40:56.357Z,4.00
2018-11-01T02:41:56.342Z,4.00
2018-11-01T02:42:56.389Z,4.00
2018-11-01T02:43:56.329Z,4.00
2018-11-01T02:44:56.320Z,4.00
2018-11-01T02:45:56.305Z,4.00
2018-11-01T02:46:56.289Z,4.00
2018-11-01T02:47:56.283Z,4.00
2018-11-01T02:48:56.305Z,4.00
2018-11-01T02:49:56.262Z,4.00
2018-11-01T02:50:56.251Z,4.00
2018-11-01T02:52:07.746Z,4.00
2018-11-01T02:52:56.229Z,4.00
2018-11-01T02:53:56.216Z,4.00
2018-11-01T02:54:56.246Z,4.00
2018-11-01T02:55:56.196Z,4.00
2018-11-01T02:56:56.184Z,4.00
2018-11-01T02:57:56.182Z,4.00
2018-11-01T02:58:56.172Z,4.00
2018-11-01T02:59:56.261Z,4.00
2018-11-01T03:00:56.174Z,4.00
2018-11-01T03:01:56.127Z,4.00
2018-11-01T03:02:56.119Z,4.00
2018-11-01T03:03:56.105Z,4.00
2018-11-01T03:04:56.105Z,4.00
2018-11-01T03:05:56.084Z,4.00
2018-11-01T03:06:56.234Z,4.00
2018-11-01T03:07:56.063Z,4.00
2018-11-01T03:08:56.056Z,4.00
2018-11-01T03:09:56.039Z,4.00
2018-11-01T03:10:56.040Z,4.00
2018-11-01T03:11:56.020Z,4.00
2018-11-01T03:12:56.045Z,4.00
2018-11-01T03:13:55.999Z,4.00
2018-11-01T03:14:55.987Z,4.00
2018-11-01T03:15:55.983Z,4.00
2018-11-01T03:16:55.994Z,4.00
2018-11-01T03:17:55.954Z,4.00
2018-11-01T03:18:56.121Z,4.00
2018-11-01T03:19:55.931Z,4.00
2018-11-01T03:20:55.928Z,4.00
2018-11-01T03:21:55.942Z,4.00
2018-11-01T03:23:06.213Z,4.00
2018-11-01T03:23:55.892Z,4.00
2018-11-01T03:24:56.051Z,4.00
2018-11-01T03:25:55.869Z,4.00
2018-11-01T03:26:55.860Z,4.00
2018-11-01T03:27:55.849Z,4.00
2018-11-01T03:28:55.832Z,4.00
2018-11-01T03:29:55.823Z,4.00
2018-11-01T03:30:55.830Z,4.00
2018-11-01T03:31:55.807Z,4.00
2018-11-01T03:32:55.792Z,4.00
2018-11-01T03:33:55.788Z,4.00
2018-11-01T03:34:55.776Z,4.00
2018-11-01T03:35:55.769Z,4.00
2018-11-01T03:36:55.770Z,4.00
2018-11-01T03:37:55.751Z,4.00
2018-11-01T03:38:55.793Z,4.00
2018-11-01T03:39:55.729Z,4.00
2018-11-01T03:40:55.716Z,4.00
2018-11-01T03:41:55.699Z,4.00
2018-11-01T03:42:55.724Z,4.00
2018-11-01T03:43:55.685Z,4.00
2018-11-01T03:44:55.669Z,4.00
2018-11-01T03:45:55.656Z,4.00
2018-11-01T03:46:55.651Z,4.00
2018-11-01T03:47:55.638Z,4.00
2018-11-01T03:48:55.660Z,4.00
2018-11-01T03:49:55.613Z,4.00
2018-11-01T03:50:55.601Z,4.00
2018-11-01T03:51:55.708Z,4.00
2018-11-01T03:52:55.583Z,4.00
2018-11-01T03:54:08.613Z,4.00
2018-11-01T03:54:55.556Z,4.00
2018-11-01T03:55:55.543Z,4.00
2018-11-01T03:56:55.537Z,4.00
2018-11-01T03:57:55.537Z,4.00
2018-11-01T03:58:55.513Z,4.00
2018-11-01T03:59:55.547Z,4.00
2018-11-01T04:00:55.494Z,4.00
2018-11-01T04:01:55.484Z,4.00
2018-11-01T04:02:55.471Z,4.00
2018-11-01T04:03:55.520Z,4.00
2018-11-01T04:04:55.449Z,4.00
2018-11-01T04:05:55.484Z,4.00
2018-11-01T04:06:55.427Z,4.00
2018-11-01T04:07:55.419Z,4.00
2018-11-01T04:08:55.414Z,4.00
2018-11-01T04:09:55.394Z,4.00
2018-11-01T04:10:55.382Z,4.00
2018-11-01T04:11:55.391Z,4.00
2018-11-01T04:12:55.359Z,4.00
2018-11-01T04:13:55.351Z,4.00
2018-11-01T04:14:55.430Z,4.00
2018-11-01T04:15:55.336Z,4.00
2018-11-01T04:16:55.378Z,4.00
2018-11-01T04:17:55.350Z,4.00
2018-11-01T04:18:55.298Z,4.00
2018-11-01T04:19:55.299Z,4.00
2018-11-01T04:20:55.281Z,4.00
2018-11-01T04:21:55.271Z,4.00
2018-11-01T04:22:55.256Z,4.00
2018-11-01T04:23:55.286Z,4.00
2018-11-01T04:25:05.375Z,4.00
2018-11-01T04:25:55.226Z,4.00
2018-11-01T04:26:55.211Z,4.00
2018-11-01T04:27:55.222Z,4.00
2018-11-01T04:28:55.214Z,4.00
2018-11-01T04:29:55.218Z,4.00
2018-11-01T04:30:55.185Z,4.00
2018-11-01T04:31:55.166Z,4.00
2018-11-01T04:32:55.248Z,4.00
2018-11-01T04:33:55.151Z,4.00
2018-11-01T04:34:55.130Z,4.00
2018-11-01T04:35:55.765Z,4.00
2018-11-01T04:36:55.109Z,4.00
2018-11-01T04:37:55.096Z,4.00
2018-11-01T04:38:55.089Z,4.00
2018-11-01T04:39:55.081Z,8.00
2018-11-01T04:40:55.068Z,4.00
2018-11-01T04:41:55.090Z,8.00
2018-11-01T04:42:55.053Z,8.00
2018-11-01T04:43:55.028Z,8.00
2018-11-01T04:44:55.030Z,8.00
2018-11-01T04:45:55.009Z,8.00
2018-11-01T04:46:55.001Z,4.00
2018-11-01T04:47:55.290Z,8.00
2018-11-01T04:48:54.979Z,8.00
2018-11-01T04:49:54.974Z,8.00
2018-11-01T04:50:54.959Z,8.00
2018-11-01T04:51:54.947Z,8.00
2018-11-01T04:52:54.941Z,8.00
2018-11-01T04:53:54.960Z,8.00
2018-11-01T04:54:54.916Z,8.00
2018-11-01T04:56:05.344Z,12.00
2018-11-01T04:56:54.888Z,12.00
2018-11-01T04:57:54.881Z,12.00
2018-11-01T04:58:54.870Z,12.00
2018-11-01T04:59:54.897Z,16.00
2018-11-01T05:00:54.849Z,16.00
2018-11-01T05:01:54.846Z,16.00
2018-11-01T05:02:54.830Z,20.00
2018-11-01T05:03:54.814Z,20.00
2018-11-01T05:04:54.869Z,20.00
2018-11-01T05:05:54.837Z,24.00
2018-11-01T05:06:54.801Z,28.00
2018-11-01T05:07:54.776Z,32.00
2018-11-01T05:08:54.762Z,32.00
2018-11-01T05:09:54.757Z,36.00
2018-11-01T05:10:54.745Z,40.00
2018-11-01T05:11:54.771Z,48.00
2018-11-01T05:12:54.734Z,48.00
2018-11-01T05:13:54.709Z,56.00
2018-11-01T05:14:54.699Z,60.00
2018-11-01T05:15:54.692Z,64.00
2018-11-01T05:16:54.683Z,68.00
2018-11-01T05:17:54.699Z,72.00
2018-11-01T05:18:54.660Z,84.00
2018-11-01T05:19:54.652Z,92.00
2018-11-01T05:20:54.633Z,100.00
2018-11-01T05:21:54.625Z,108.00
2018-11-01T05:22:54.618Z,120.00
2018-11-01T05:23:54.626Z,124.00
2018-11-01T05:24:54.596Z,132.00
2018-11-01T05:25:54.696Z,148.00
2018-11-01T05:27:05.114Z,152.00
2018-11-01T05:27:54.557Z,144.00
2018-11-01T05:28:54.549Z,156.00
2018-11-01T05:29:54.576Z,160.00
2018-11-01T05:30:54.530Z,168.00
2018-11-01T05:31:54.517Z,168.00
2018-11-01T05:32:54.512Z,176.00
2018-11-01T05:33:54.543Z,188.00
2018-11-01T05:34:54.484Z,192.00
2018-11-01T05:35:54.496Z,204.00
2018-11-01T05:36:54.469Z,200.00
2018-11-01T05:37:54.466Z,192.00
2018-11-01T05:38:54.446Z,216.00
2018-11-01T05:39:54.430Z,260.00
2018-11-01T05:40:54.424Z,264.00
2018-11-01T05:41:54.734Z,264.00
2018-11-01T05:42:54.404Z,256.00
2018-11-01T05:43:54.390Z,236.00
2018-11-01T05:44:54.384Z,240.00
2018-11-01T05:45:54.371Z,228.00
2018-11-01T05:46:54.361Z,216.00
2018-11-01T05:47:54.388Z,216.00
2018-11-01T05:48:54.340Z,220.00
2018-11-01T05:49:54.327Z,252.00
2018-11-01T05:50:54.316Z,320.00
2018-11-01T05:51:54.309Z,348.00
2018-11-01T05:52:54.294Z,356.00
2018-11-01T05:53:54.322Z,372.00
2018-11-01T05:54:54.274Z,404.00
2018-11-01T05:55:54.274Z,400.00
2018-11-01T05:56:54.249Z,436.00
2018-11-01T05:58:04.337Z,468.00
2018-11-01T05:58:54.230Z,452.00
2018-11-01T05:59:54.267Z,444.00
2018-11-01T06:00:54.207Z,500.00
2018-11-01T06:01:54.193Z,552.00
2018-11-01T06:02:54.201Z,592.00
2018-11-01T06:03:54.171Z,624.00
2018-11-01T06:04:54.160Z,608.00
2018-11-01T06:05:54.322Z,600.00
2018-11-01T06:06:54.151Z,544.00
2018-11-01T06:07:54.131Z,568.00
2018-11-01T06:08:54.123Z,644.00
2018-11-01T06:09:54.116Z,620.00
2018-11-01T06:10:54.097Z,628.00
2018-11-01T06:11:54.116Z,660.00
2018-11-01T06:12:54.086Z,624.00
2018-11-01T06:13:54.064Z,620.00
2018-11-01T06:14:54.055Z,608.00
2018-11-01T06:15:54.051Z,596.00
2018-11-01T06:16:54.035Z,560.00
2018-11-01T06:17:54.061Z,572.00
2018-11-01T06:18:54.014Z,584.00
2018-11-01T06:19:54.006Z,604.00
2018-11-01T06:20:53.989Z,608.00
2018-11-01T06:21:53.995Z,604.00
2018-11-01T06:22:53.977Z,668.00
2018-11-01T06:23:54.003Z,880.00
2018-11-01T06:24:53.952Z,1080.00
2018-11-01T06:25:53.949Z,1200.00
2018-11-01T06:26:53.928Z,1300.00
2018-11-01T06:27:53.916Z,1296.00
2018-11-01T06:29:04.200Z,1292.00
2018-11-01T06:29:53.894Z,1236.00
2018-11-01T06:30:53.884Z,1152.00
2018-11-01T06:31:53.870Z,1120.00
2018-11-01T06:32:53.859Z,976.00
2018-11-01T06:33:53.846Z,820.00
2018-11-01T06:34:54.016Z,756.00
2018-11-01T06:35:53.827Z,844.00
2018-11-01T06:36:53.822Z,872.00
2018-11-01T06:37:53.808Z,888.00
2018-11-01T06:38:53.796Z,940.00
2018-11-01T06:39:53.786Z,1008.00
2018-11-01T06:40:53.814Z,1040.00
2018-11-01T06:41:53.763Z,1024.00
2018-11-01T06:42:53.751Z,956.00
2018-11-01T06:43:53.743Z,916.00
2018-11-01T06:44:53.796Z,936.00
2018-11-01T06:45:53.723Z,1016.00
2018-11-01T06:46:53.741Z,1044.00
2018-11-01T06:47:53.700Z,1132.00
2018-11-01T06:48:53.689Z,1108.00
2018-11-01T06:49:53.678Z,1140.00
2018-11-01T06:50:53.672Z,1160.00
2018-11-01T06:51:53.655Z,1160.00
2018-11-01T06:52:53.680Z,1172.00
2018-11-01T06:53:53.631Z,1212.00
2018-11-01T06:54:53.619Z,1368.00
2018-11-01T06:55:53.612Z,1464.00
2018-11-01T06:56:53.600Z,1444.00
2018-11-01T06:57:53.601Z,1332.00
2018-11-01T06:58:53.704Z,1228.00
2018-11-01T07:00:04.067Z,1244.00
2018-11-01T07:00:53.562Z,1396.00
2018-11-01T07:01:53.541Z,1584.00
2018-11-01T07:02:53.533Z,1452.00
2018-11-01T07:03:53.526Z,1444.00
2018-11-01T07:04:53.547Z,1480.00
2018-11-01T07:05:53.523Z,1484.00
2018-11-01T07:06:53.491Z,1500.00
2018-11-01T07:07:53.490Z,1516.00
2018-11-01T07:08:53.486Z,1360.00
2018-11-01T07:09:53.457Z,1320.00
2018-11-01T07:10:53.484Z,1316.00
2018-11-01T07:11:53.444Z,1344.00
2018-11-01T07:12:53.433Z,1260.00
2018-11-01T07:13:53.414Z,1164.00
2018-11-01T07:14:53.404Z,1040.00
2018-11-01T07:15:53.396Z,1048.00
2018-11-01T07:16:53.591Z,1144.00
2018-11-01T07:17:53.381Z,1064.00
2018-11-01T07:18:53.375Z,940.00
2018-11-01T07:19:53.356Z,1064.00
2018-11-01T07:20:53.342Z,1012.00
2018-11-01T07:21:53.331Z,1328.00
2018-11-01T07:22:53.491Z,1312.00
2018-11-01T07:23:53.318Z,1116.00
2018-11-01T07:24:53.301Z,1180.00
2018-11-01T07:25:53.332Z,1116.00
2018-11-01T07:26:53.277Z,900.00
2018-11-01T07:27:53.270Z,728.00
2018-11-01T07:28:53.292Z,680.00
2018-11-01T07:29:53.251Z,656.00
2018-11-01T07:31:03.972Z,728.00
2018-11-01T07:31:53.224Z,972.00
2018-11-01T07:32:53.265Z,1228.00
2018-11-01T07:33:53.201Z,1608.00
2018-11-01T07:34:53.234Z,1904.00
2018-11-01T07:35:53.176Z,2044.00
2018-11-01T07:36:53.172Z,2176.00
2018-11-01T07:37:53.160Z,2504.00
2018-11-01T07:38:53.163Z,2404.00
2018-11-01T07:39:53.210Z,2084.00
2018-11-01T07:40:53.140Z,2232.00
2018-11-01T07:41:53.113Z,2236.00
2018-11-01T07:42:53.100Z,1948.00
2018-11-01T07:43:53.097Z,1820.00
2018-11-01T07:44:53.085Z,2060.00
2018-11-01T07:45:53.080Z,2236.00
2018-11-01T07:46:53.230Z,2112.00
2018-11-01T07:47:53.044Z,1960.00
2018-11-01T07:48:53.043Z,1988.00
2018-11-01T07:49:53.024Z,2104.00
2018-11-01T07:50:53.038Z,2148.00
2018-11-01T07:51:53.007Z,2220.00
2018-11-01T07:52:53.279Z,2292.00
2018-11-01T07:53:53.016Z,2596.00
2018-11-01T07:54:52.970Z,2820.00
2018-11-01T07:55:52.974Z,3276.00
2018-11-01T07:56:52.949Z,3740.00
2018-11-01T07:57:52.940Z,4036.00
2018-11-01T07:58:52.953Z,4168.00
2018-11-01T07:59:52.931Z,4492.00
2018-11-01T08:00:52.916Z,4164.00
2018-11-01T08:02:02.886Z,3324.00
2018-11-01T08:02:52.891Z,4112.00
2018-11-01T08:03:52.874Z,4796.00
2018-11-01T08:04:52.898Z,4760.00
2018-11-01T08:05:53.026Z,4856.00
2018-11-01T08:06:52.842Z,4552.00
2018-11-01T08:07:52.842Z,3876.00
2018-11-01T08:08:52.821Z,3648.00
2018-11-01T08:09:52.810Z,4008.00
2018-11-01T08:10:52.842Z,4120.00
2018-11-01T08:11:52.851Z,4652.00
2018-11-01T08:12:52.783Z,4776.00
2018-11-01T08:13:52.764Z,5440.00
2018-11-01T08:14:52.756Z,4872.00
2018-11-01T08:15:52.752Z,4888.00
2018-11-01T08:16:52.768Z,4612.00
2018-11-01T08:17:52.732Z,5152.00
2018-11-01T08:18:52.723Z,4532.00
2018-11-01T08:19:52.967Z,4084.00
2018-11-01T08:20:52.763Z,3396.00
2018-11-01T08:21:52.681Z,2972.00
2018-11-01T08:22:52.687Z,3308.00
2018-11-01T08:23:52.665Z,3508.00
2018-11-01T08:24:52.663Z,3352.00
2018-11-01T08:25:52.646Z,3304.00
2018-11-01T08:26:52.629Z,3356.00
2018-11-01T08:27:52.679Z,2788.00
2018-11-01T08:28:52.868Z,2884.00
2018-11-01T08:29:52.616Z,2952.00
2018-11-01T08:30:52.581Z,2560.00
2018-11-01T08:31:52.574Z,2280.00
2018-11-01T08:33:03.105Z,2048.00
2018-11-01T08:33:52.547Z,1708.00
2018-11-01T08:34:52.713Z,1408.00
2018-11-01T08:35:52.532Z,1360.00
2018-11-01T08:36:52.513Z,1388.00
2018-11-01T08:37:52.504Z,1388.00
2018-11-01T08:38:52.503Z,1356.00
2018-11-01T08:39:52.482Z,1380.00
2018-11-01T08:40:52.575Z,1292.00
2018-11-01T08:41:52.458Z,1164.00
2018-11-01T08:42:52.453Z,1088.00
2018-11-01T08:43:52.441Z,1032.00
2018-11-01T08:44:52.429Z,1128.00
2018-11-01T08:45:52.423Z,1224.00
2018-11-01T08:46:52.444Z,1284.00
2018-11-01T08:47:52.407Z,1116.00
2018-11-01T08:48:52.382Z,1068.00
2018-11-01T08:49:52.384Z,1240.00
2018-11-01T08:50:52.369Z,1148.00
2018-11-01T08:51:52.376Z,1040.00
2018-11-01T08:52:52.514Z,1136.00
2018-11-01T08:53:52.332Z,1108.00
2018-11-01T08:54:52.318Z,1092.00
2018-11-01T08:55:52.337Z,1168.00
2018-11-01T08:56:52.303Z,1320.00
2018-11-01T08:57:52.313Z,1376.00
2018-11-01T08:58:52.343Z,1724.00
2018-11-01T08:59:52.267Z,1968.00
2018-11-01T09:00:52.255Z,1780.00
2018-11-01T09:01:52.248Z,1592.00
2018-11-01T09:02:52.241Z,1536.00
2018-11-01T09:04:02.803Z,1464.00
2018-11-01T09:04:52.211Z,1416.00
2018-11-01T09:05:52.204Z,1324.00
2018-11-01T09:06:52.197Z,1312.00
2018-11-01T09:07:52.182Z,1408.00
2018-11-01T09:08:52.196Z,1588.00
2018-11-01T09:09:52.205Z,1580.00
2018-11-01T09:10:52.165Z,1376.00
2018-11-01T09:11:52.145Z,1432.00
2018-11-01T09:12:52.213Z,1440.00
2018-11-01T09:13:52.114Z,1324.00
2018-11-01T09:14:52.103Z,1240.00
2018-11-01T09:15:52.148Z,1148.00
2018-11-01T09:16:52.080Z,1084.00
2018-11-01T09:17:52.089Z,1160.00
2018-11-01T09:18:52.065Z,1240.00
2018-11-01T09:19:52.086Z,1292.00
2018-11-01T09:20:52.045Z,1428.00
2018-11-01T09:21:52.064Z,1300.00
2018-11-01T09:22:52.024Z,1192.00
2018-11-01T09:23:52.033Z,1088.00
2018-11-01T09:24:52.032Z,1032.00
2018-11-01T09:25:51.982Z,1032.00
2018-11-01T09:26:52.028Z,1068.00
2018-11-01T09:27:51.999Z,1184.00
2018-11-01T09:28:51.957Z,1348.00
2018-11-01T09:29:51.961Z,1300.00
2018-11-01T09:30:51.929Z,1320.00
2018-11-01T09:31:51.952Z,1264.00
2018-11-01T09:32:51.928Z,1368.00
2018-11-01T09:33:51.940Z,1768.00
2018-11-01T09:35:01.838Z,2248.00
2018-11-01T09:35:52.024Z,2172.00
2018-11-01T09:36:51.866Z,2048.00
2018-11-01T09:37:51.859Z,1936.00
2018-11-01T09:38:51.848Z,1776.00
2018-11-01T09:39:51.878Z,1756.00
2018-11-01T09:40:51.829Z,1804.00
2018-11-01T09:41:51.831Z,1744.00
2018-11-01T09:42:51.805Z,1664.00
2018-11-01T09:43:51.788Z,1652.00
2018-11-01T09:44:51.786Z,1628.00
2018-11-01T09:45:52.169Z,1864.00
2018-11-01T09:46:52.086Z,2388.00
2018-11-01T09:47:51.991Z,2712.00
2018-11-01T09:48:51.736Z,2896.00
2018-11-01T09:49:51.731Z,2620.00
2018-11-01T09:50:51.718Z,2276.00
2018-11-01T09:51:51.740Z,2176.00
2018-11-01T09:52:51.696Z,2180.00
2018-11-01T09:53:51.685Z,2072.00
2018-11-01T09:54:51.667Z,2020.00
2018-11-01T09:55:51.814Z,2164.00
2018-11-01T09:56:51.657Z,2304.00
2018-11-01T09:57:51.680Z,2688.00
2018-11-01T09:58:51.627Z,2484.00
2018-11-01T09:59:51.658Z,2572.00
2018-11-01T10:00:51.633Z,2816.00
2018-11-01T10:01:51.592Z,2396.00
2018-11-01T10:02:51.586Z,1944.00
2018-11-01T10:03:51.622Z,1788.00
2018-11-01T10:04:51.663Z,1732.00
2018-11-01T10:06:01.660Z,1708.00
2018-11-01T10:06:51.548Z,1628.00
2018-11-01T10:07:51.531Z,1416.00
2018-11-01T10:08:51.518Z,1396.00
2018-11-01T10:09:51.562Z,1484.00
2018-11-01T10:10:51.501Z,1468.00
2018-11-01T10:11:51.500Z,1360.00
2018-11-01T10:12:51.479Z,1320.00
2018-11-01T10:13:51.532Z,1492.00
2018-11-01T10:14:51.463Z,1852.00
2018-11-01T10:15:51.744Z,1820.00
2018-11-01T10:16:51.589Z,1544.00
2018-11-01T10:17:51.932Z,1528.00
2018-11-01T10:18:51.406Z,1656.00
2018-11-01T10:19:51.397Z,1928.00
2018-11-01T10:20:51.392Z,2120.00
2018-11-01T10:21:51.547Z,2276.00
2018-11-01T10:22:51.372Z,2008.00
2018-11-01T10:23:51.382Z,1876.00
2018-11-01T10:24:51.347Z,1856.00
2018-11-01T10:25:51.366Z,1680.00
2018-11-01T10:26:51.327Z,1700.00
2018-11-01T10:27:51.469Z,1808.00
2018-11-01T10:28:51.304Z,1960.00
2018-11-01T10:29:51.305Z,2468.00
2018-11-01T10:30:51.291Z,2688.00
2018-11-01T10:31:51.275Z,2592.00
2018-11-01T10:32:51.259Z,2720.00
2018-11-01T10:33:51.308Z,3384.00
2018-11-01T10:34:51.234Z,3676.00
2018-11-01T10:35:51.222Z,3028.00
2018-11-01T10:37:02.000Z,3212.00
2018-11-01T10:37:51.204Z,4368.00
2018-11-01T10:38:51.197Z,6380.00
2018-11-01T10:39:51.225Z,7228.00
2018-11-01T10:40:51.255Z,7620.00
2018-11-01T10:41:51.158Z,8708.00
2018-11-01T10:42:51.147Z,9748.00
2018-11-01T10:43:51.146Z,9352.00
2018-11-01T10:44:51.123Z,8368.00
2018-11-01T10:45:51.156Z,9344.00
2018-11-01T10:46:51.108Z,17344.00
2018-11-01T10:47:51.177Z,17152.00
2018-11-01T10:48:51.082Z,6324.00
2018-11-01T10:49:51.083Z,7764.00
2018-11-01T10:50:51.064Z,8588.00
2018-11-01T10:51:51.095Z,8852.00
2018-11-01T10:52:51.045Z,9304.00
2018-11-01T10:53:51.178Z,7640.00
2018-11-01T10:54:51.014Z,6072.00
2018-11-01T10:55:51.014Z,4668.00
2018-11-01T10:56:51.000Z,4304.00
2018-11-01T10:57:51.028Z,5088.00
2018-11-01T10:58:50.977Z,5512.00
2018-11-01T10:59:51.082Z,6036.00
2018-11-01T11:00:51.067Z,6848.00
2018-11-01T11:01:50.951Z,6288.00
2018-11-01T11:02:50.942Z,4996.00
2018-11-01T11:03:50.962Z,4528.00
2018-11-01T11:04:50.916Z,4808.00
2018-11-01T11:05:50.907Z,5116.00
2018-11-01T11:06:50.896Z,4860.00
2018-11-01T11:08:01.966Z,4388.00
2018-11-01T11:08:50.869Z,4084.00
2018-11-01T11:09:51.232Z,3828.00
2018-11-01T11:10:50.851Z,3704.00
2018-11-01T11:11:50.844Z,3800.00
2018-11-01T11:12:50.822Z,4116.00
2018-11-01T11:13:50.821Z,4220.00
2018-11-01T11:14:50.813Z,4924.00
2018-11-01T11:15:50.853Z,5336.00
2018-11-01T11:16:50.795Z,4956.00
2018-11-01T11:17:50.772Z,4732.00
2018-11-01T11:18:50.761Z,5412.00
2018-11-01T11:19:50.845Z,6704.00
2018-11-01T11:20:51.108Z,6928.00
2018-11-01T11:21:50.803Z,7236.00
2018-11-01T11:22:50.743Z,7280.00
2018-11-01T11:23:50.702Z,7140.00
2018-11-01T11:24:50.700Z,6168.00
2018-11-01T11:25:50.691Z,5984.00
2018-11-01T11:26:50.671Z,5624.00
2018-11-01T11:27:50.697Z,5676.00
2018-11-01T11:28:50.658Z,6368.00
2018-11-01T11:29:50.658Z,7268.00
2018-11-01T11:30:50.628Z,7684.00
2018-11-01T11:31:50.634Z,10284.00
2018-11-01T11:32:50.602Z,7600.00
2018-11-01T11:33:50.639Z,7792.00
2018-11-01T11:34:50.584Z,8020.00
2018-11-01T11:35:50.682Z,8684.00
2018-11-01T11:36:50.563Z,13440.00
2018-11-01T11:37:50.556Z,16192.00
2018-11-01T11:39:01.885Z,12904.00
2018-11-01T11:39:50.679Z,24384.00
2018-11-01T11:40:50.519Z,14900.00
2018-11-01T11:41:50.510Z,11900.00
2018-11-01T11:42:50.498Z,14276.00
2018-11-01T11:43:50.492Z,18272.00
2018-11-01T11:44:50.520Z,40864.00
2018-11-01T11:45:50.478Z,27008.00
2018-11-01T11:46:50.469Z,11148.00
2018-11-01T11:47:50.447Z,10084.00
2018-11-01T11:48:50.433Z,10136.00
2018-11-01T11:49:50.439Z,15520.00
2018-11-01T11:50:50.448Z,12508.00
2018-11-01T11:51:50.408Z,10332.00
2018-11-01T11:52:50.396Z,13564.00
2018-11-01T11:53:50.386Z,10796.00
2018-11-01T11:54:50.385Z,21952.00
2018-11-01T11:55:50.363Z,9672.00
2018-11-01T11:56:50.537Z,9244.00
2018-11-01T11:57:50.337Z,8776.00
2018-11-01T11:58:50.335Z,8352.00
2018-11-01T11:59:50.324Z,7088.00
2018-11-01T12:00:50.309Z,6776.00
2018-11-01T12:01:50.323Z,5476.00
2018-11-01T12:02:50.322Z,4796.00
2018-11-01T12:03:50.280Z,4760.00
2018-11-01T12:04:50.265Z,4664.00
2018-11-01T12:05:50.279Z,4256.00
2018-11-01T12:06:50.251Z,4056.00
2018-11-01T12:07:50.238Z,4212.00
2018-11-01T12:08:50.262Z,3620.00
2018-11-01T12:10:02.262Z,3132.00
2018-11-01T12:10:50.200Z,2888.00
2018-11-01T12:11:50.187Z,2740.00
2018-11-01T12:12:50.177Z,2648.00
2018-11-01T12:13:50.166Z,2616.00
2018-11-01T12:14:50.180Z,2572.00
2018-11-01T12:15:50.147Z,2620.00
2018-11-01T12:16:50.136Z,2460.00
2018-11-01T12:17:50.121Z,2340.00
2018-11-01T12:18:50.113Z,2224.00
2018-11-01T12:19:50.101Z,2252.00
2018-11-01T12:20:50.267Z,2548.00
2018-11-01T12:21:50.078Z,2852.00
2018-11-01T12:22:50.067Z,3480.00
2018-11-01T12:23:50.065Z,3284.00
2018-11-01T12:24:50.060Z,3292.00
2018-11-01T12:25:50.056Z,3048.00
2018-11-01T12:26:50.075Z,3144.00
2018-11-01T12:27:50.850Z,3132.00
2018-11-01T12:28:50.035Z,2968.00
2018-11-01T12:29:49.992Z,2816.00
2018-11-01T12:30:49.983Z,2548.00
2018-11-01T12:31:49.974Z,2328.00
2018-11-01T12:32:49.999Z,2280.00
2018-11-01T12:33:49.955Z,2308.00
2018-11-01T12:34:49.956Z,2308.00
2018-11-01T12:35:49.983Z,2304.00